sensor_id;sensor_type;location;lat;lon;timestamp;temperature;humidity
77523;SHT31;66637;-29.628;-49.938;2023-04-05T00:01:49;23.44;75.28
77523;SHT31;66637;-29.628;-49.938;2023-04-05T00:04:22;23.47;75.86
77523;SHT31;66637;-29.628;-49.938;2023-04-05T00:06:53;23.45;76.03
77523;SHT31;66637;-29.628;-49.938;2023-04-05T00:09:28;23.44;75.95
77523;SHT31;66637;-29.628;-49.938;2023-04-05T00:11:58;23.37;76.19
77523;SHT31;66637;-29.628;-49.938;2023-04-05T00:14:28;23.41;76.78
77523;SHT31;66637;-29.628;-49.938;2023-04-05T00:16:59;23.38;77.19
77523;SHT31;66637;-29.628;-49.938;2023-04-05T00:19:31;23.31;76.88
77523;SHT31;66637;-29.628;-49.938;2023-04-05T00:22:04;23.30;76.65
77523;SHT31;66637;-29.628;-49.938;2023-04-05T00:24:36;23.31;76.53
77523;SHT31;66637;-29.628;-49.938;2023-04-05T00:27:10;23.34;76.14
77523;SHT31;66637;-29.628;-49.938;2023-04-05T00:29:41;23.35;76.49
77523;SHT31;66637;-29.628;-49.938;2023-04-05T00:32:12;23.40;76.32
77523;SHT31;66637;-29.628;-49.938;2023-04-05T00:34:42;23.35;76.15
77523;SHT31;66637;-29.628;-49.938;2023-04-05T00:37:13;23.37;76.58
77523;SHT31;66637;-29.628;-49.938;2023-04-05T00:39:45;23.31;76.93
77523;SHT31;66637;-29.628;-49.938;2023-04-05T00:42:15;23.25;76.39
77523;SHT31;66637;-29.628;-49.938;2023-04-05T00:44:47;23.15;75.59
77523;SHT31;66637;-29.628;-49.938;2023-04-05T00:47:18;23.00;74.94
77523;SHT31;66637;-29.628;-49.938;2023-04-05T00:49:49;22.89;74.73
77523;SHT31;66637;-29.628;-49.938;2023-04-05T00:52:21;22.87;74.63
77523;SHT31;66637;-29.628;-49.938;2023-04-05T00:54:52;22.80;74.44
77523;SHT31;66637;-29.628;-49.938;2023-04-05T00:57:25;22.82;74.34
77523;SHT31;66637;-29.628;-49.938;2023-04-05T00:59:59;22.73;74.46
77523;SHT31;66637;-29.628;-49.938;2023-04-05T01:02:47;22.73;74.61
77523;SHT31;66637;-29.628;-49.938;2023-04-05T01:05:43;22.77;74.60
77523;SHT31;66637;-29.628;-49.938;2023-04-05T01:08:21;22.66;74.65
77523;SHT31;66637;-29.628;-49.938;2023-04-05T01:11:02;22.70;74.76
77523;SHT31;66637;-29.628;-49.938;2023-04-05T01:13:36;22.62;74.84
77523;SHT31;66637;-29.628;-49.938;2023-04-05T01:16:06;22.59;74.91
77523;SHT31;66637;-29.628;-49.938;2023-04-05T01:18:39;22.59;75.07
77523;SHT31;66637;-29.628;-49.938;2023-04-05T01:21:38;22.63;75.11
77523;SHT31;66637;-29.628;-49.938;2023-04-05T01:24:56;22.62;75.23
77523;SHT31;66637;-29.628;-49.938;2023-04-05T01:27:50;22.59;75.36
77523;SHT31;66637;-29.628;-49.938;2023-04-05T01:30:28;22.60;75.44
77523;SHT31;66637;-29.628;-49.938;2023-04-05T01:35:57;22.63;75.53
77523;SHT31;66637;-29.628;-49.938;2023-04-05T01:38:29;22.62;75.35
77523;SHT31;66637;-29.628;-49.938;2023-04-05T01:41:01;22.66;75.46
77523;SHT31;66637;-29.628;-49.938;2023-04-05T01:43:32;22.66;75.37
77523;SHT31;66637;-29.628;-49.938;2023-04-05T01:46:02;22.67;75.64
77523;SHT31;66637;-29.628;-49.938;2023-04-05T01:48:33;22.70;75.92
77523;SHT31;66637;-29.628;-49.938;2023-04-05T01:51:04;22.73;76.38
77523;SHT31;66637;-29.628;-49.938;2023-04-05T01:53:34;22.72;76.58
77523;SHT31;66637;-29.628;-49.938;2023-04-05T01:56:06;22.69;77.09
77523;SHT31;66637;-29.628;-49.938;2023-04-05T01:58:37;22.62;77.13
77523;SHT31;66637;-29.628;-49.938;2023-04-05T02:01:08;22.63;76.89
77523;SHT31;66637;-29.628;-49.938;2023-04-05T02:03:40;22.60;76.83
77523;SHT31;66637;-29.628;-49.938;2023-04-05T02:06:10;22.59;77.12
77523;SHT31;66637;-29.628;-49.938;2023-04-05T02:08:42;22.55;77.38
77523;SHT31;66637;-29.628;-49.938;2023-04-05T02:11:12;22.55;77.13
77523;SHT31;66637;-29.628;-49.938;2023-04-05T02:13:42;22.60;77.16
77523;SHT31;66637;-29.628;-49.938;2023-04-05T02:16:14;22.57;77.21
77523;SHT31;66637;-29.628;-49.938;2023-04-05T02:18:46;22.59;77.18
77523;SHT31;66637;-29.628;-49.938;2023-04-05T02:21:20;22.51;77.04
77523;SHT31;66637;-29.628;-49.938;2023-04-05T02:23:51;22.45;77.01
77523;SHT31;66637;-29.628;-49.938;2023-04-05T02:26:21;22.39;77.11
77523;SHT31;66637;-29.628;-49.938;2023-04-05T02:28:53;22.31;77.51
77523;SHT31;66637;-29.628;-49.938;2023-04-05T02:31:23;22.21;77.75
77523;SHT31;66637;-29.628;-49.938;2023-04-05T02:33:54;22.21;77.64
77523;SHT31;66637;-29.628;-49.938;2023-04-05T02:36:27;22.26;77.49
77523;SHT31;66637;-29.628;-49.938;2023-04-05T02:38:58;22.28;77.57
77523;SHT31;66637;-29.628;-49.938;2023-04-05T02:41:29;22.21;77.69
77523;SHT31;66637;-29.628;-49.938;2023-04-05T02:44:01;22.11;77.56
77523;SHT31;66637;-29.628;-49.938;2023-04-05T02:46:32;22.11;77.71
77523;SHT31;66637;-29.628;-49.938;2023-04-05T02:49:02;22.18;77.39
77523;SHT31;66637;-29.628;-49.938;2023-04-05T02:51:35;22.21;77.64
77523;SHT31;66637;-29.628;-49.938;2023-04-05T02:54:09;22.22;77.86
77523;SHT31;66637;-29.628;-49.938;2023-04-05T02:56:40;22.23;77.88
77523;SHT31;66637;-29.628;-49.938;2023-04-05T02:59:15;22.21;77.84
77523;SHT31;66637;-29.628;-49.938;2023-04-05T03:01:47;22.28;77.98
77523;SHT31;66637;-29.628;-49.938;2023-04-05T03:04:24;22.28;78.01
77523;SHT31;66637;-29.628;-49.938;2023-04-05T03:07:01;22.29;78.03
77523;SHT31;66637;-29.628;-49.938;2023-04-05T03:09:36;22.26;78.25
77523;SHT31;66637;-29.628;-49.938;2023-04-05T03:12:09;22.25;78.31
77523;SHT31;66637;-29.628;-49.938;2023-04-05T03:14:42;22.26;78.19
77523;SHT31;66637;-29.628;-49.938;2023-04-05T03:17:19;22.28;78.12
77523;SHT31;66637;-29.628;-49.938;2023-04-05T03:20:03;22.28;77.84
77523;SHT31;66637;-29.628;-49.938;2023-04-05T03:22:38;22.25;77.97
77523;SHT31;66637;-29.628;-49.938;2023-04-05T03:25:09;22.23;77.70
77523;SHT31;66637;-29.628;-49.938;2023-04-05T03:27:45;22.19;77.59
77523;SHT31;66637;-29.628;-49.938;2023-04-05T03:30:17;22.18;77.68
77523;SHT31;66637;-29.628;-49.938;2023-04-05T03:32:57;22.09;77.66
77523;SHT31;66637;-29.628;-49.938;2023-04-05T03:35:50;22.05;77.73
77523;SHT31;66637;-29.628;-49.938;2023-04-05T03:38:21;22.02;77.75
77523;SHT31;66637;-29.628;-49.938;2023-04-05T03:41:05;21.98;77.90
77523;SHT31;66637;-29.628;-49.938;2023-04-05T03:43:37;21.95;77.94
77523;SHT31;66637;-29.628;-49.938;2023-04-05T03:46:08;21.94;77.88
77523;SHT31;66637;-29.628;-49.938;2023-04-05T03:48:39;21.92;77.86
77523;SHT31;66637;-29.628;-49.938;2023-04-05T03:51:11;21.92;77.87
77523;SHT31;66637;-29.628;-49.938;2023-04-05T03:53:42;21.92;77.82
77523;SHT31;66637;-29.628;-49.938;2023-04-05T03:56:12;21.88;77.82
77523;SHT31;66637;-29.628;-49.938;2023-04-05T03:58:47;21.90;77.69
77523;SHT31;66637;-29.628;-49.938;2023-04-05T04:01:23;21.82;77.91
77523;SHT31;66637;-29.628;-49.938;2023-04-05T04:03:53;21.75;77.84
77523;SHT31;66637;-29.628;-49.938;2023-04-05T04:06:25;21.75;77.90
77523;SHT31;66637;-29.628;-49.938;2023-04-05T04:08:55;21.70;77.93
77523;SHT31;66637;-29.628;-49.938;2023-04-05T04:11:30;21.65;78.01
77523;SHT31;66637;-29.628;-49.938;2023-04-05T04:14:04;21.62;77.94
77523;SHT31;66637;-29.628;-49.938;2023-04-05T04:17:01;21.60;78.14
77523;SHT31;66637;-29.628;-49.938;2023-04-05T04:20:10;21.61;78.08
77523;SHT31;66637;-29.628;-49.938;2023-04-05T04:22:52;21.57;78.11
77523;SHT31;66637;-29.628;-49.938;2023-04-05T04:25:32;21.54;78.25
77523;SHT31;66637;-29.628;-49.938;2023-04-05T04:28:22;21.54;78.12
77523;SHT31;66637;-29.628;-49.938;2023-04-05T04:31:11;21.61;78.24
77523;SHT31;66637;-29.628;-49.938;2023-04-05T04:34:04;21.60;77.99
77523;SHT31;66637;-29.628;-49.938;2023-04-05T04:36:44;21.60;78.16
77523;SHT31;66637;-29.628;-49.938;2023-04-05T04:39:35;21.60;77.50
77523;SHT31;66637;-29.628;-49.938;2023-04-05T04:42:36;21.64;78.03
77523;SHT31;66637;-29.628;-49.938;2023-04-05T04:45:35;21.68;77.96
77523;SHT31;66637;-29.628;-49.938;2023-04-05T04:48:29;21.60;77.98
77523;SHT31;66637;-29.628;-49.938;2023-04-05T04:51:13;21.55;78.04
77523;SHT31;66637;-29.628;-49.938;2023-04-05T04:53:43;21.53;77.98
77523;SHT31;66637;-29.628;-49.938;2023-04-05T04:56:14;21.48;78.23
77523;SHT31;66637;-29.628;-49.938;2023-04-05T04:58:44;21.36;78.37
77523;SHT31;66637;-29.628;-49.938;2023-04-05T05:01:16;21.31;78.75
77523;SHT31;66637;-29.628;-49.938;2023-04-05T05:03:46;21.26;78.53
77523;SHT31;66637;-29.628;-49.938;2023-04-05T05:06:20;21.22;78.67
77523;SHT31;66637;-29.628;-49.938;2023-04-05T05:08:51;21.19;78.94
77523;SHT31;66637;-29.628;-49.938;2023-04-05T05:11:21;21.19;78.82
77523;SHT31;66637;-29.628;-49.938;2023-04-05T05:13:51;21.20;78.92
77523;SHT31;66637;-29.628;-49.938;2023-04-05T05:16:24;21.23;78.74
77523;SHT31;66637;-29.628;-49.938;2023-04-05T05:18:56;21.24;78.89
77523;SHT31;66637;-29.628;-49.938;2023-04-05T05:21:34;21.24;79.20
77523;SHT31;66637;-29.628;-49.938;2023-04-05T05:24:05;21.31;78.90
77523;SHT31;66637;-29.628;-49.938;2023-04-05T05:26:38;21.34;79.02
77523;SHT31;66637;-29.628;-49.938;2023-04-05T05:29:10;21.41;78.88
77523;SHT31;66637;-29.628;-49.938;2023-04-05T05:31:44;21.51;78.81
77523;SHT31;66637;-29.628;-49.938;2023-04-05T05:34:15;21.53;78.64
77523;SHT31;66637;-29.628;-49.938;2023-04-05T05:36:55;21.57;78.71
77523;SHT31;66637;-29.628;-49.938;2023-04-05T05:39:26;21.57;78.78
77523;SHT31;66637;-29.628;-49.938;2023-04-05T05:41:57;21.61;78.62
77523;SHT31;66637;-29.628;-49.938;2023-04-05T05:44:31;21.62;78.64
77523;SHT31;66637;-29.628;-49.938;2023-04-05T05:47:02;21.60;78.45
77523;SHT31;66637;-29.628;-49.938;2023-04-05T05:49:32;21.58;78.35
77523;SHT31;66637;-29.628;-49.938;2023-04-05T05:52:04;21.51;78.95
77523;SHT31;66637;-29.628;-49.938;2023-04-05T05:54:34;21.58;78.74
77523;SHT31;66637;-29.628;-49.938;2023-04-05T05:57:06;21.60;78.61
77523;SHT31;66637;-29.628;-49.938;2023-04-05T05:59:36;21.61;78.80
77523;SHT31;66637;-29.628;-49.938;2023-04-05T06:02:07;21.58;79.06
77523;SHT31;66637;-29.628;-49.938;2023-04-05T06:04:37;21.58;78.94
77523;SHT31;66637;-29.628;-49.938;2023-04-05T06:07:08;21.61;78.80
77523;SHT31;66637;-29.628;-49.938;2023-04-05T06:09:40;21.58;78.88
77523;SHT31;66637;-29.628;-49.938;2023-04-05T06:12:12;21.55;78.80
77523;SHT31;66637;-29.628;-49.938;2023-04-05T06:14:42;21.58;78.97
77523;SHT31;66637;-29.628;-49.938;2023-04-05T06:17:13;21.60;78.98
77523;SHT31;66637;-29.628;-49.938;2023-04-05T06:19:43;21.58;79.07
77523;SHT31;66637;-29.628;-49.938;2023-04-05T06:22:15;21.61;78.99
77523;SHT31;66637;-29.628;-49.938;2023-04-05T06:24:47;21.61;79.02
77523;SHT31;66637;-29.628;-49.938;2023-04-05T06:27:17;21.64;78.79
77523;SHT31;66637;-29.628;-49.938;2023-04-05T06:29:47;21.61;78.77
77523;SHT31;66637;-29.628;-49.938;2023-04-05T06:32:18;21.60;78.97
77523;SHT31;66637;-29.628;-49.938;2023-04-05T06:34:49;21.57;79.30
77523;SHT31;66637;-29.628;-49.938;2023-04-05T06:37:20;21.53;79.31
77523;SHT31;66637;-29.628;-49.938;2023-04-05T06:39:51;21.61;79.05
77523;SHT31;66637;-29.628;-49.938;2023-04-05T06:42:21;21.55;79.09
77523;SHT31;66637;-29.628;-49.938;2023-04-05T06:44:59;21.55;79.19
77523;SHT31;66637;-29.628;-49.938;2023-04-05T06:47:37;21.53;79.31
77523;SHT31;66637;-29.628;-49.938;2023-04-05T06:50:09;21.54;79.28
77523;SHT31;66637;-29.628;-49.938;2023-04-05T06:52:40;21.55;79.29
77523;SHT31;66637;-29.628;-49.938;2023-04-05T06:55:11;21.58;79.39
77523;SHT31;66637;-29.628;-49.938;2023-04-05T06:57:41;21.60;79.48
77523;SHT31;66637;-29.628;-49.938;2023-04-05T07:00:12;21.54;79.63
77523;SHT31;66637;-29.628;-49.938;2023-04-05T07:02:45;21.58;79.56
77523;SHT31;66637;-29.628;-49.938;2023-04-05T07:05:15;21.55;79.82
77523;SHT31;66637;-29.628;-49.938;2023-04-05T07:07:46;21.62;79.69
77523;SHT31;66637;-29.628;-49.938;2023-04-05T07:10:17;21.60;79.81
77523;SHT31;66637;-29.628;-49.938;2023-04-05T07:12:47;21.58;79.78
77523;SHT31;66637;-29.628;-49.938;2023-04-05T07:15:18;21.58;79.79
77523;SHT31;66637;-29.628;-49.938;2023-04-05T07:17:48;21.58;79.65
77523;SHT31;66637;-29.628;-49.938;2023-04-05T07:20:20;21.57;79.71
77523;SHT31;66637;-29.628;-49.938;2023-04-05T07:22:50;21.53;79.85
77523;SHT31;66637;-29.628;-49.938;2023-04-05T07:25:22;21.53;79.96
77523;SHT31;66637;-29.628;-49.938;2023-04-05T07:27:52;21.47;79.73
77523;SHT31;66637;-29.628;-49.938;2023-04-05T07:30:24;21.47;79.73
77523;SHT31;66637;-29.628;-49.938;2023-04-05T07:32:55;21.46;79.92
77523;SHT31;66637;-29.628;-49.938;2023-04-05T07:35:25;21.46;79.85
77523;SHT31;66637;-29.628;-49.938;2023-04-05T07:37:56;21.40;79.96
77523;SHT31;66637;-29.628;-49.938;2023-04-05T07:40:26;21.40;79.94
77523;SHT31;66637;-29.628;-49.938;2023-04-05T07:42:56;21.34;79.98
77523;SHT31;66637;-29.628;-49.938;2023-04-05T07:45:26;21.36;80.05
77523;SHT31;66637;-29.628;-49.938;2023-04-05T07:47:58;21.26;80.62
77523;SHT31;66637;-29.628;-49.938;2023-04-05T07:50:29;21.16;81.23
77523;SHT31;66637;-29.628;-49.938;2023-04-05T07:53:00;21.19;81.36
77523;SHT31;66637;-29.628;-49.938;2023-04-05T07:55:31;21.19;81.43
77523;SHT31;66637;-29.628;-49.938;2023-04-05T07:58:02;21.16;81.21
77523;SHT31;66637;-29.628;-49.938;2023-04-05T08:00:33;21.14;81.14
77523;SHT31;66637;-29.628;-49.938;2023-04-05T08:03:03;21.14;81.06
77523;SHT31;66637;-29.628;-49.938;2023-04-05T08:05:34;21.11;81.14
77523;SHT31;66637;-29.628;-49.938;2023-04-05T08:08:04;21.13;80.89
77523;SHT31;66637;-29.628;-49.938;2023-04-05T08:10:39;21.14;80.83
77523;SHT31;66637;-29.628;-49.938;2023-04-05T08:13:11;21.14;80.89
77523;SHT31;66637;-29.628;-49.938;2023-04-05T08:15:41;21.13;81.38
77523;SHT31;66637;-29.628;-49.938;2023-04-05T08:18:12;21.16;81.38
77523;SHT31;66637;-29.628;-49.938;2023-04-05T08:20:43;21.11;81.64
77523;SHT31;66637;-29.628;-49.938;2023-04-05T08:23:13;21.22;82.61
77523;SHT31;66637;-29.628;-49.938;2023-04-05T08:25:44;21.13;82.24
77523;SHT31;66637;-29.628;-49.938;2023-04-05T08:28:16;21.00;82.68
77523;SHT31;66637;-29.628;-49.938;2023-04-05T08:30:51;20.95;82.92
77523;SHT31;66637;-29.628;-49.938;2023-04-05T08:33:22;20.95;83.02
77523;SHT31;66637;-29.628;-49.938;2023-04-05T08:35:52;20.93;83.13
77523;SHT31;66637;-29.628;-49.938;2023-04-05T08:38:23;20.95;83.14
77523;SHT31;66637;-29.628;-49.938;2023-04-05T08:40:55;20.95;83.12
77523;SHT31;66637;-29.628;-49.938;2023-04-05T08:43:46;20.97;83.15
77523;SHT31;66637;-29.628;-49.938;2023-04-05T08:46:18;21.02;82.80
77523;SHT31;66637;-29.628;-49.938;2023-04-05T08:48:50;21.03;82.70
77523;SHT31;66637;-29.628;-49.938;2023-04-05T08:51:20;21.00;82.73
77523;SHT31;66637;-29.628;-49.938;2023-04-05T08:53:52;20.96;82.61
77523;SHT31;66637;-29.628;-49.938;2023-04-05T08:56:43;20.89;82.83
77523;SHT31;66637;-29.628;-49.938;2023-04-05T08:59:17;20.85;82.74
77523;SHT31;66637;-29.628;-49.938;2023-04-05T09:01:49;20.79;82.84
77523;SHT31;66637;-29.628;-49.938;2023-04-05T09:04:23;20.85;82.73
77523;SHT31;66637;-29.628;-49.938;2023-04-05T09:06:58;20.87;82.65
77523;SHT31;66637;-29.628;-49.938;2023-04-05T09:09:31;20.89;82.51
77523;SHT31;66637;-29.628;-49.938;2023-04-05T09:12:04;20.85;82.51
77523;SHT31;66637;-29.628;-49.938;2023-04-05T09:14:36;20.89;82.56
77523;SHT31;66637;-29.628;-49.938;2023-04-05T09:17:07;20.89;82.53
77523;SHT31;66637;-29.628;-49.938;2023-04-05T09:19:39;20.85;82.62
77523;SHT31;66637;-29.628;-49.938;2023-04-05T09:22:09;20.86;82.86
77523;SHT31;66637;-29.628;-49.938;2023-04-05T09:24:43;20.85;82.98
77523;SHT31;66637;-29.628;-49.938;2023-04-05T09:27:20;20.86;83.03
77523;SHT31;66637;-29.628;-49.938;2023-04-05T09:29:55;20.89;83.03
77523;SHT31;66637;-29.628;-49.938;2023-04-05T09:32:26;20.89;83.06
77523;SHT31;66637;-29.628;-49.938;2023-04-05T09:35:02;20.90;82.99
77523;SHT31;66637;-29.628;-49.938;2023-04-05T09:37:35;20.85;82.82
77523;SHT31;66637;-29.628;-49.938;2023-04-05T09:40:06;20.82;82.88
77523;SHT31;66637;-29.628;-49.938;2023-04-05T09:42:43;20.83;83.10
77523;SHT31;66637;-29.628;-49.938;2023-04-05T09:45:16;20.82;83.02
77523;SHT31;66637;-29.628;-49.938;2023-04-05T09:47:57;20.87;82.84
77523;SHT31;66637;-29.628;-49.938;2023-04-05T09:50:28;20.86;82.52
77523;SHT31;66637;-29.628;-49.938;2023-04-05T09:53:10;20.77;82.39
77523;SHT31;66637;-29.628;-49.938;2023-04-05T09:55:47;20.68;82.46
77523;SHT31;66637;-29.628;-49.938;2023-04-05T09:58:21;20.62;82.45
77523;SHT31;66637;-29.628;-49.938;2023-04-05T10:00:51;20.55;82.50
77523;SHT31;66637;-29.628;-49.938;2023-04-05T10:03:46;20.51;82.63
77523;SHT31;66637;-29.628;-49.938;2023-04-05T10:06:17;20.53;82.50
77523;SHT31;66637;-29.628;-49.938;2023-04-05T10:08:49;20.51;82.80
77523;SHT31;66637;-29.628;-49.938;2023-04-05T10:11:21;20.48;82.95
77523;SHT31;66637;-29.628;-49.938;2023-04-05T10:13:52;20.52;82.98
77523;SHT31;66637;-29.628;-49.938;2023-04-05T10:16:25;20.53;83.15
77523;SHT31;66637;-29.628;-49.938;2023-04-05T10:18:57;20.59;83.22
77523;SHT31;66637;-29.628;-49.938;2023-04-05T10:21:34;20.64;83.22
77523;SHT31;66637;-29.628;-49.938;2023-04-05T10:24:17;20.69;83.39
77523;SHT31;66637;-29.628;-49.938;2023-04-05T10:27:17;20.77;83.12
77523;SHT31;66637;-29.628;-49.938;2023-04-05T10:29:59;20.90;82.78
77523;SHT31;66637;-29.628;-49.938;2023-04-05T10:35:34;20.90;82.98
77523;SHT31;66637;-29.628;-49.938;2023-04-05T10:38:28;21.03;82.96
77523;SHT31;66637;-29.628;-49.938;2023-04-05T10:41:09;21.09;82.89
77523;SHT31;66637;-29.628;-49.938;2023-04-05T10:43:41;21.13;82.59
77523;SHT31;66637;-29.628;-49.938;2023-04-05T10:46:19;21.16;82.89
77523;SHT31;66637;-29.628;-49.938;2023-04-05T10:49:07;21.23;82.78
77523;SHT31;66637;-29.628;-49.938;2023-04-05T10:51:41;21.27;82.86
77523;SHT31;66637;-29.628;-49.938;2023-04-05T10:54:14;21.24;82.83
77523;SHT31;66637;-29.628;-49.938;2023-04-05T10:56:47;21.31;82.92
77523;SHT31;66637;-29.628;-49.938;2023-04-05T10:59:20;21.31;83.08
77523;SHT31;66637;-29.628;-49.938;2023-04-05T11:01:52;21.37;83.18
77523;SHT31;66637;-29.628;-49.938;2023-04-05T11:04:22;21.36;83.18
77523;SHT31;66637;-29.628;-49.938;2023-04-05T11:10:02;21.34;83.09
77523;SHT31;66637;-29.628;-49.938;2023-04-05T11:20:52;21.13;83.31
77523;SHT31;66637;-29.628;-49.938;2023-04-05T11:23:27;21.13;83.25
77523;SHT31;66637;-29.628;-49.938;2023-04-05T11:26:07;21.16;83.12
77523;SHT31;66637;-29.628;-49.938;2023-04-05T11:28:39;21.23;82.43
77523;SHT31;66637;-29.628;-49.938;2023-04-05T11:31:15;21.29;82.50
77523;SHT31;66637;-29.628;-49.938;2023-04-05T11:36:46;21.54;82.24
77523;SHT31;66637;-29.628;-49.938;2023-04-05T11:44:47;21.97;82.35
77523;SHT31;66637;-29.628;-49.938;2023-04-05T11:47:19;22.02;82.21
77523;SHT31;66637;-29.628;-49.938;2023-04-05T11:49:52;22.12;81.88
77523;SHT31;66637;-29.628;-49.938;2023-04-05T11:52:24;22.19;81.62
77523;SHT31;66637;-29.628;-49.938;2023-04-05T11:54:55;22.31;81.43
77523;SHT31;66637;-29.628;-49.938;2023-04-05T11:57:30;22.38;80.96
77523;SHT31;66637;-29.628;-49.938;2023-04-05T12:00:00;22.53;80.89
77523;SHT31;66637;-29.628;-49.938;2023-04-05T12:02:42;22.67;81.15
77523;SHT31;66637;-29.628;-49.938;2023-04-05T12:05:14;22.80;80.85
77523;SHT31;66637;-29.628;-49.938;2023-04-05T12:07:51;22.86;80.06
77523;SHT31;66637;-29.628;-49.938;2023-04-05T12:10:23;23.07;79.86
77523;SHT31;66637;-29.628;-49.938;2023-04-05T12:12:57;23.27;79.26
77523;SHT31;66637;-29.628;-49.938;2023-04-05T12:15:27;23.33;79.39
77523;SHT31;66637;-29.628;-49.938;2023-04-05T12:17:57;23.33;79.00
77523;SHT31;66637;-29.628;-49.938;2023-04-05T12:20:28;23.45;78.51
77523;SHT31;66637;-29.628;-49.938;2023-04-05T12:22:58;23.30;78.79
77523;SHT31;66637;-29.628;-49.938;2023-04-05T12:25:30;23.38;78.57
77523;SHT31;66637;-29.628;-49.938;2023-04-05T12:28:06;23.37;78.13
77523;SHT31;66637;-29.628;-49.938;2023-04-05T12:30:54;23.64;78.40
77523;SHT31;66637;-29.628;-49.938;2023-04-05T12:33:31;23.76;77.68
77523;SHT31;66637;-29.628;-49.938;2023-04-05T12:36:06;23.95;77.68
77523;SHT31;66637;-29.628;-49.938;2023-04-05T12:38:37;23.94;76.82
77523;SHT31;66637;-29.628;-49.938;2023-04-05T12:41:09;23.81;76.46
77523;SHT31;66637;-29.628;-49.938;2023-04-05T12:43:40;23.88;76.48
77523;SHT31;66637;-29.628;-49.938;2023-04-05T12:54:55;23.69;76.46
77523;SHT31;66637;-29.628;-49.938;2023-04-05T12:57:30;23.84;77.62
77523;SHT31;66637;-29.628;-49.938;2023-04-05T13:00:01;23.76;75.94
77523;SHT31;66637;-29.628;-49.938;2023-04-05T13:02:33;23.69;75.80
77523;SHT31;66637;-29.628;-49.938;2023-04-05T13:05:05;23.74;76.35
77523;SHT31;66637;-29.628;-49.938;2023-04-05T13:07:35;23.74;76.01
77523;SHT31;66637;-29.628;-49.938;2023-04-05T13:10:06;23.59;76.45
77523;SHT31;66637;-29.628;-49.938;2023-04-05T13:12:38;23.48;77.04
77523;SHT31;66637;-29.628;-49.938;2023-04-05T13:15:10;23.58;77.32
77523;SHT31;66637;-29.628;-49.938;2023-04-05T13:17:42;23.44;77.13
77523;SHT31;66637;-29.628;-49.938;2023-04-05T13:20:16;23.40;76.65
77523;SHT31;66637;-29.628;-49.938;2023-04-05T13:22:48;23.27;76.98
77523;SHT31;66637;-29.628;-49.938;2023-04-05T13:25:19;23.28;77.22
77523;SHT31;66637;-29.628;-49.938;2023-04-05T13:27:49;23.33;77.27
77523;SHT31;66637;-29.628;-49.938;2023-04-05T13:30:20;23.34;77.71
77523;SHT31;66637;-29.628;-49.938;2023-04-05T13:32:51;23.43;77.87
77523;SHT31;66637;-29.628;-49.938;2023-04-05T13:35:22;23.50;77.78
77523;SHT31;66637;-29.628;-49.938;2023-04-05T13:37:52;23.47;77.20
77523;SHT31;66637;-29.628;-49.938;2023-04-05T13:40:24;23.37;77.83
77523;SHT31;66637;-29.628;-49.938;2023-04-05T13:42:54;23.35;77.95
77523;SHT31;66637;-29.628;-49.938;2023-04-05T13:45:25;23.35;78.08
77523;SHT31;66637;-29.628;-49.938;2023-04-05T13:47:57;23.40;78.20
77523;SHT31;66637;-29.628;-49.938;2023-04-05T13:50:28;23.37;77.46
77523;SHT31;66637;-29.628;-49.938;2023-04-05T13:53:02;23.40;77.87
77523;SHT31;66637;-29.628;-49.938;2023-04-05T13:55:33;23.47;78.04
77523;SHT31;66637;-29.628;-49.938;2023-04-05T13:58:05;23.34;77.59
77523;SHT31;66637;-29.628;-49.938;2023-04-05T14:00:37;23.23;77.70
77523;SHT31;66637;-29.628;-49.938;2023-04-05T14:03:09;23.18;78.34
77523;SHT31;66637;-29.628;-49.938;2023-04-05T14:05:43;23.06;78.52
77523;SHT31;66637;-29.628;-49.938;2023-04-05T14:08:22;23.17;78.88
77523;SHT31;66637;-29.628;-49.938;2023-04-05T14:10:54;23.20;79.10
77523;SHT31;66637;-29.628;-49.938;2023-04-05T14:13:25;23.07;77.95
77523;SHT31;66637;-29.628;-49.938;2023-04-05T14:15:56;22.97;79.41
77523;SHT31;66637;-29.628;-49.938;2023-04-05T14:18:26;22.97;79.79
77523;SHT31;66637;-29.628;-49.938;2023-04-05T14:20:57;22.92;79.79
77523;SHT31;66637;-29.628;-49.938;2023-04-05T14:23:29;22.67;80.03
77523;SHT31;66637;-29.628;-49.938;2023-04-05T14:26:02;22.60;79.28
77523;SHT31;66637;-29.628;-49.938;2023-04-05T14:28:32;22.51;79.17
77523;SHT31;66637;-29.628;-49.938;2023-04-05T14:31:04;22.41;79.38
77523;SHT31;66637;-29.628;-49.938;2023-04-05T14:33:34;22.43;79.10
77523;SHT31;66637;-29.628;-49.938;2023-04-05T14:36:05;22.46;79.56
77523;SHT31;66637;-29.628;-49.938;2023-04-05T14:38:36;22.46;79.30
77523;SHT31;66637;-29.628;-49.938;2023-04-05T14:41:08;22.59;79.44
77523;SHT31;66637;-29.628;-49.938;2023-04-05T14:43:40;22.67;79.17
77523;SHT31;66637;-29.628;-49.938;2023-04-05T14:46:11;22.76;78.68
77523;SHT31;66637;-29.628;-49.938;2023-04-05T14:48:41;22.76;78.31
77523;SHT31;66637;-29.628;-49.938;2023-04-05T14:51:13;22.86;78.48
77523;SHT31;66637;-29.628;-49.938;2023-04-05T14:53:43;22.93;77.36
77523;SHT31;66637;-29.628;-49.938;2023-04-05T14:56:13;23.11;78.18
77523;SHT31;66637;-29.628;-49.938;2023-04-05T16:11:14;23.40;75.11
77523;SHT31;66637;-29.628;-49.938;2023-04-05T16:13:46;23.03;75.90
77523;SHT31;66637;-29.628;-49.938;2023-04-05T16:16:17;22.97;75.27
77523;SHT31;66637;-29.628;-49.938;2023-04-05T16:19:08;22.84;77.27
77523;SHT31;66637;-29.628;-49.938;2023-04-05T16:21:39;22.80;76.98
77523;SHT31;66637;-29.628;-49.938;2023-04-05T16:24:12;22.74;76.96
77523;SHT31;66637;-29.628;-49.938;2023-04-05T16:26:42;22.60;77.11
77523;SHT31;66637;-29.628;-49.938;2023-04-05T16:29:14;22.62;76.43
77523;SHT31;66637;-29.628;-49.938;2023-04-05T16:31:45;22.57;76.13
77523;SHT31;66637;-29.628;-49.938;2023-04-05T16:34:17;22.55;78.11
77523;SHT31;66637;-29.628;-49.938;2023-04-05T16:36:47;22.62;77.74
77523;SHT31;66637;-29.628;-49.938;2023-04-05T16:39:17;22.52;76.95
77523;SHT31;66637;-29.628;-49.938;2023-04-05T16:41:48;22.59;76.36
77523;SHT31;66637;-29.628;-49.938;2023-04-05T16:44:18;22.73;77.17
77523;SHT31;66637;-29.628;-49.938;2023-04-05T16:46:49;22.86;77.86
77523;SHT31;66637;-29.628;-49.938;2023-04-05T16:49:21;23.13;77.11
77523;SHT31;66637;-29.628;-49.938;2023-04-05T16:51:52;23.28;77.22
77523;SHT31;66637;-29.628;-49.938;2023-04-05T16:54:23;23.07;76.68
77523;SHT31;66637;-29.628;-49.938;2023-04-05T16:56:54;22.86;77.69
77523;SHT31;66637;-29.628;-49.938;2023-04-05T16:59:25;22.77;77.64
77523;SHT31;66637;-29.628;-49.938;2023-04-05T17:01:57;22.73;77.44
77523;SHT31;66637;-29.628;-49.938;2023-04-05T17:04:29;22.73;78.13
77523;SHT31;66637;-29.628;-49.938;2023-04-05T17:06:59;22.70;78.12
77523;SHT31;66637;-29.628;-49.938;2023-04-05T17:09:30;22.60;78.14
77523;SHT31;66637;-29.628;-49.938;2023-04-05T17:12:02;22.70;78.61
77523;SHT31;66637;-29.628;-49.938;2023-04-05T17:14:33;22.72;78.83